createdAt,value
2023-05-20T00:01:01.022Z,-18619.13
2023-05-20T00:04:04.227Z,-18617.91
2023-05-20T00:07:07.036Z,-18616.66
2023-05-20T00:10:10.848Z,-18615.31
2023-05-20T00:13:13.443Z,-18612.72
2023-05-20T00:16:16.307Z,-18612.03
2023-05-20T00:19:18.917Z,-18611.06
2023-05-20T00:22:22.142Z,-18608.75
2023-05-20T00:25:24.840Z,-18606.69
2023-05-20T00:28:27.805Z,-18605.06
2023-05-20T00:31:30.571Z,-18603.00
2023-05-20T00:34:33.438Z,-18603.28
2023-05-20T00:37:36.127Z,-18602.88
2023-05-20T00:40:39.003Z,-18602.47
2023-05-20T00:43:41.609Z,-18602.47
2023-05-20T00:46:45.844Z,-18601.38
2023-05-20T00:49:51.041Z,-18601.38
2023-05-20T00:52:55.559Z,-18600.97
2023-05-20T00:55:58.231Z,-18600.56
2023-05-20T00:59:01.456Z,-18601.09
2023-05-20T01:02:07.240Z,-18600.84
2023-05-20T01:05:10.483Z,-18600.97
2023-05-20T01:08:13.109Z,-18600.69
2023-05-20T01:11:26.584Z,-18601.66
2023-05-20T01:14:32.051Z,-18602.47
2023-05-20T01:17:38.725Z,-18601.78
2023-05-20T01:20:41.715Z,-18600.84
2023-05-20T01:23:44.637Z,-18599.59
2023-05-20T01:26:48.438Z,-18599.19
2023-05-20T01:29:52.870Z,-18597.97
2023-05-20T01:33:02.484Z,-18597.56
2023-05-20T01:36:07.623Z,-18597.56
2023-05-20T01:39:10.441Z,-18597.41
2023-05-20T01:42:15.517Z,-18597.41
2023-05-20T01:45:18.105Z,-18597.00
2023-05-20T01:48:21.087Z,-18597.41
2023-05-20T01:51:23.702Z,-18596.72
2023-05-20T01:54:26.650Z,-18596.72
2023-05-20T01:57:29.383Z,-18599.59
2023-05-20T02:00:34.155Z,-18598.66
2023-05-20T02:03:36.980Z,-18598.66
2023-05-20T02:06:40.695Z,-18601.09
2023-05-20T02:09:43.580Z,-18601.09
2023-05-20T02:12:47.944Z,-18600.28
2023-05-20T02:15:51.480Z,-18599.34
2023-05-20T02:18:54.257Z,-18598.22
2023-05-20T02:21:58.268Z,-18597.81
2023-05-20T02:25:00.847Z,-18597.16
2023-05-20T02:28:06.105Z,-18598.09
2023-05-20T02:31:08.788Z,-18597.81
2023-05-20T02:34:11.729Z,-18596.47
2023-05-20T02:37:14.992Z,-18595.22
2023-05-20T02:40:17.938Z,-18594.56
2023-05-20T02:43:20.449Z,-18593.88
2023-05-20T02:46:23.453Z,-18592.09
2023-05-20T02:49:26.038Z,-18590.59
2023-05-20T02:52:28.912Z,-18588.53
2023-05-20T02:55:35.948Z,-18587.03
2023-05-20T02:58:39.219Z,-18585.25
2023-05-20T03:01:41.884Z,-18584.16
2023-05-20T03:04:46.942Z,-18584.03
2023-05-20T03:07:50.125Z,-18584.56
2023-05-20T03:10:53.038Z,-18584.97
2023-05-20T03:13:56.955Z,-18584.44
2023-05-20T03:17:00.174Z,-18584.28
2023-05-20T03:20:07.386Z,-18584.56
2023-05-20T03:23:11.099Z,-18583.75
2023-05-20T03:26:13.939Z,-18583.75
2023-05-20T03:29:18.045Z,-18586.06
2023-05-20T03:32:23.852Z,-18587.16
2023-05-20T03:35:26.873Z,-18588.00
2023-05-20T03:38:30.841Z,-18589.22
2023-05-20T03:41:34.069Z,-18591.12
2023-05-20T03:44:37.522Z,-18591.94
2023-05-20T03:47:40.711Z,-18591.81
2023-05-20T03:50:43.350Z,-18591.53
2023-05-20T03:53:46.800Z,-18592.09
2023-05-20T03:56:49.503Z,-18593.59
2023-05-20T03:59:52.447Z,-18595.38
2023-05-20T04:02:56.346Z,-18598.66
2023-05-20T04:05:59.271Z,-18600.16
2023-05-20T04:09:01.923Z,-18604.25
2023-05-20T04:12:07.717Z,-18606.03
2023-05-20T04:15:10.880Z,-18607.94
2023-05-20T04:18:15.069Z,-18609.84
2023-05-20T04:21:18.971Z,-18612.16
2023-05-20T04:24:25.260Z,-18615.56
2023-05-20T04:27:28.906Z,-18618.16
2023-05-20T04:30:33.536Z,-18619.94
2023-05-20T04:33:39.518Z,-18622.41
2023-05-20T04:36:43.569Z,-18623.63
2023-05-20T04:39:48.288Z,-18626.50
2023-05-20T04:42:51.430Z,-18630.31
2023-05-20T04:45:54.732Z,-18634.69
2023-05-20T04:48:57.746Z,-18637.69
2023-05-20T04:52:00.911Z,-18641.22
2023-05-20T04:55:03.908Z,-18643.97
2023-05-20T04:58:08.170Z,-18645.88
2023-05-20T05:01:11.443Z,-18648.31
2023-05-20T05:04:14.186Z,-18650.22
2023-05-20T05:07:17.339Z,-18652.81
2023-05-20T05:10:20.514Z,-18657.31
2023-05-20T05:13:23.581Z,-18660.88
2023-05-20T05:16:26.307Z,-18664.81
2023-05-20T05:19:29.358Z,-18668.37
2023-05-20T05:22:32.222Z,-18672.84
2023-05-20T05:25:35.304Z,-18678.16
2023-05-20T05:28:38.215Z,-18679.00
2023-05-20T05:31:41.291Z,-18683.22
2023-05-20T05:34:43.924Z,-18684.84
2023-05-20T05:37:46.894Z,-18686.75
2023-05-20T05:40:49.624Z,-18690.56
2023-05-20T05:43:53.101Z,-18694.66
2023-05-20T05:46:55.883Z,-18702.69
2023-05-20T05:50:00.113Z,-18705.28
2023-05-20T05:53:03.276Z,-18708.81
2023-05-20T05:56:07.191Z,-18710.44
2023-05-20T05:59:09.757Z,-18711.81
2023-05-20T06:02:14.852Z,-18713.44
2023-05-20T06:05:17.986Z,-18715.47
2023-05-20T06:08:20.878Z,-18718.19
2023-05-20T06:11:24.343Z,-18722.13
2023-05-20T06:14:28.137Z,-18723.78
2023-05-20T06:17:31.112Z,-18727.59
2023-05-20T06:20:33.782Z,-18730.44
2023-05-20T06:23:36.770Z,-18733.44
2023-05-20T06:26:39.542Z,-18737.50
2023-05-20T06:29:43.959Z,-18738.06
2023-05-20T06:32:47.036Z,-18744.03
2023-05-20T06:35:50.009Z,-18743.50
2023-05-20T06:38:52.707Z,-18747.44
2023-05-20T06:41:55.729Z,-18747.97
2023-05-20T06:45:00.868Z,-18752.47
2023-05-20T06:48:07.290Z,-18753.94
2023-05-20T06:51:10.491Z,-18757.09
2023-05-20T06:54:13.540Z,-18760.75
2023-05-20T06:57:17.527Z,-18764.97
2023-05-20T07:00:20.984Z,-18765.78
2023-05-20T07:03:23.767Z,-18766.44
2023-05-20T07:06:27.387Z,-18766.31
2023-05-20T07:09:30.042Z,-18775.28
2023-05-20T07:12:36.063Z,-18782.34
2023-05-20T07:15:39.639Z,-18788.44
2023-05-20T07:18:42.587Z,-18790.63
2023-05-20T07:21:45.275Z,-18795.38
2023-05-20T07:24:48.677Z,-18800.25
2023-05-20T07:27:51.429Z,-18803.63
2023-05-20T07:30:56.196Z,-18807.72
2023-05-20T07:33:59.486Z,-18804.59
2023-05-20T07:37:02.463Z,-18799.72
2023-05-20T07:40:05.860Z,-18803.63
2023-05-20T07:43:09.563Z,-18804.19
2023-05-20T07:46:12.751Z,-18805.28
2023-05-20T07:49:16.033Z,-18808.94
2023-05-20T07:52:18.759Z,-18809.34
2023-05-20T07:55:21.640Z,-18812.03
2023-05-20T07:58:25.111Z,-18809.88
2023-05-20T08:01:28.560Z,-18805.53
2023-05-20T08:04:31.845Z,-18806.63
2023-05-20T08:07:34.676Z,-18807.97
2023-05-20T08:10:37.589Z,-18810.28
2023-05-20T08:13:40.395Z,-18818.56
2023-05-20T08:16:43.846Z,-18821.81
2023-05-20T08:19:46.988Z,-18828.31
2023-05-20T08:22:49.877Z,-18828.72
2023-05-20T08:25:52.411Z,-18830.47
2023-05-20T08:28:55.844Z,-18834.28
2023-05-20T08:31:58.969Z,-18840.22
2023-05-20T08:35:02.455Z,-18840.78
2023-05-20T08:38:05.873Z,-18844.44
2023-05-20T08:41:09.163Z,-18840.91
2023-05-20T08:44:12.868Z,-18845.38
2023-05-20T08:47:16.933Z,-18851.75
2023-05-20T08:50:19.687Z,-18859.88
2023-05-20T08:53:22.775Z,-18851.88
2023-05-20T08:56:30.038Z,-18856.63
2023-05-20T08:59:34.372Z,-18862.44
2023-05-20T09:02:38.493Z,-18865.16
2023-05-20T09:05:41.486Z,-18871.38
2023-05-20T09:08:44.834Z,-18876.50
2023-05-20T09:11:47.748Z,-18877.03
2023-05-20T09:14:50.445Z,-18873.53
2023-05-20T09:17:53.416Z,-18874.34
2023-05-20T09:20:56.726Z,-18876.25
2023-05-20T09:24:02.305Z,-18880.03
2023-05-20T09:27:06.043Z,-18889.22
2023-05-20T09:30:09.586Z,-18888.28
2023-05-20T09:33:12.692Z,-18887.47
2023-05-20T09:36:16.800Z,-18886.25
2023-05-20T09:39:30.810Z,-18893.53
2023-05-20T09:42:50.779Z,-18898.41
2023-05-20T09:45:55.452Z,-18890.84
2023-05-20T09:48:59.844Z,-18882.88
2023-05-20T09:52:04.176Z,-18887.88
2023-05-20T09:55:07.822Z,-18892.47
2023-05-20T09:58:16.039Z,-18900.56
2023-05-20T10:01:19.196Z,-18904.63
2023-05-20T10:04:25.563Z,-18909.09
2023-05-20T10:07:52.310Z,-18917.31
2023-05-20T10:11:04.237Z,-18918.66
2023-05-20T10:14:40.782Z,-18920.03
2023-05-20T10:17:56.805Z,-18932.03
2023-05-20T10:20:59.673Z,-18931.22
2023-05-20T10:24:10.599Z,-18933.38
2023-05-20T10:27:15.792Z,-18937.56
2023-05-20T10:30:20.825Z,-18943.22
2023-05-20T10:33:23.636Z,-18946.06
2023-05-20T10:36:29.171Z,-18948.75
2023-05-20T10:39:35.949Z,-18952.81
2023-05-20T10:42:39.415Z,-18948.50
2023-05-20T10:45:53.635Z,-18948.34
2023-05-20T10:48:56.899Z,-18951.59
2023-05-20T10:52:00.121Z,-18956.03
2023-05-20T10:55:05.056Z,-18952.81
2023-05-20T10:58:08.091Z,-18949.16
2023-05-20T11:01:11.315Z,-18950.78
2023-05-20T11:04:17.237Z,-18947.00
2023-05-20T11:07:30.512Z,-18947.41
2023-05-20T11:10:35.277Z,-18944.84
2023-05-20T11:13:38.861Z,-18957.00
2023-05-20T11:16:42.502Z,-18957.53
2023-05-20T11:19:46.896Z,-18962.38
2023-05-20T11:22:51.003Z,-18963.31
2023-05-20T11:25:55.791Z,-18963.31
2023-05-20T11:28:59.456Z,-18959.81
2023-05-20T11:32:04.399Z,-18964.25
2023-05-20T11:35:08.095Z,-18963.47
2023-05-20T11:38:11.879Z,-18962.91
2023-05-20T11:41:14.769Z,-18959.81
2023-05-20T11:44:20.160Z,-18956.84
2023-05-20T11:47:28.548Z,-18961.84
2023-05-20T11:50:42.821Z,-18966.97
2023-05-20T11:53:47.086Z,-18973.97
2023-05-20T11:56:50.150Z,-18977.19
2023-05-20T11:59:52.787Z,-18973.16
2023-05-20T12:02:55.824Z,-18977.47
2023-05-20T12:06:01.581Z,-18983.13
2023-05-20T12:09:08.985Z,-18987.28
2023-05-20T12:12:14.135Z,-18990.66
2023-05-20T12:15:16.950Z,-18978.81
2023-05-20T12:18:19.861Z,-18977.19
2023-05-20T12:21:22.517Z,-18976.41
2023-05-20T12:24:25.816Z,-18974.09
2023-05-20T12:27:28.475Z,-18977.34
2023-05-20T12:30:31.455Z,-18984.34
2023-05-20T12:33:34.078Z,-18980.69
2023-05-20T12:36:37.817Z,-18976.94
2023-05-20T12:39:40.412Z,-18975.03
2023-05-20T12:42:44.748Z,-18978.53
2023-05-20T12:45:47.408Z,-18982.03
2023-05-20T12:48:50.362Z,-18983.94
2023-05-20T12:51:53.051Z,-18975.59
2023-05-20T12:54:57.098Z,-18973.16
2023-05-20T12:57:59.717Z,-18975.03
2023-05-20T13:01:02.735Z,-18973.16
2023-05-20T13:04:05.381Z,-18973.03
2023-05-20T13:07:08.372Z,-18970.88
2023-05-20T13:10:11.664Z,-18972.63
2023-05-20T13:13:21.387Z,-18975.84
2023-05-20T13:16:24.852Z,-18977.34
2023-05-20T13:19:27.949Z,-18977.88
2023-05-20T13:22:30.757Z,-18981.38
2023-05-20T13:25:33.799Z,-18977.06
2023-05-20T13:28:36.819Z,-18976.94
2023-05-20T13:31:39.826Z,-18975.31
2023-05-20T13:34:42.587Z,-18969.78
2023-05-20T13:37:45.751Z,-18966.00
2023-05-20T13:40:49.656Z,-18975.84
2023-05-20T13:43:52.835Z,-18984.75
2023-05-20T13:46:55.442Z,-18990.41
2023-05-20T13:49:59.616Z,-19000.22
2023-05-20T13:53:04.046Z,-19009.38
2023-05-20T13:56:09.319Z,-19012.19
2023-05-20T13:59:11.961Z,-19014.63
2023-05-20T14:02:14.996Z,-18991.47
2023-05-20T14:05:18.848Z,-18989.19
2023-05-20T14:08:23.509Z,-18992.28
2023-05-20T14:11:26.341Z,-18999.94
2023-05-20T14:14:28.999Z,-19009.63
2023-05-20T14:17:32.116Z,-19012.47
2023-05-20T14:20:35.070Z,-19017.31
2023-05-20T14:23:41.131Z,-19026.44
2023-05-20T14:26:43.793Z,-19031.97
2023-05-20T14:29:46.682Z,-19032.09
2023-05-20T14:32:49.392Z,-19038.69
2023-05-20T14:35:52.252Z,-19032.09
2023-05-20T14:38:54.990Z,-19037.59
2023-05-20T14:41:57.946Z,-19038.00
2023-05-20T14:45:00.633Z,-19046.88
2023-05-20T14:48:03.713Z,-19046.19
2023-05-20T14:51:06.426Z,-19058.41
2023-05-20T14:54:10.484Z,-19070.34
2023-05-20T14:57:13.282Z,-19074.91
2023-05-20T15:00:16.705Z,-19104.28
2023-05-20T15:03:19.480Z,-19144.16
2023-05-20T15:06:22.514Z,-19171.28
2023-05-20T15:09:25.385Z,-19211.94
2023-05-20T15:12:28.200Z,-19211.94
2023-05-20T15:15:30.646Z,-19219.69
2023-05-20T15:18:33.576Z,-19156.44
2023-05-20T15:21:36.405Z,-19092.47
2023-05-20T15:24:39.223Z,-19048.06
2023-05-20T15:27:42.318Z,-19052.09
2023-05-20T15:30:53.823Z,-19126.75
2023-05-20T15:33:56.610Z,-19187.56
2023-05-20T15:36:59.551Z,-19199.69
2023-05-20T15:40:02.206Z,-19213.56
2023-05-20T15:43:06.670Z,-19242.44
2023-05-20T15:46:09.262Z,-19241.25
2023-05-20T15:49:12.703Z,-19251.22
2023-05-20T15:52:15.446Z,-19255.88
2023-05-20T15:55:18.898Z,-19247.09
2023-05-20T15:58:21.524Z,-19242.44
2023-05-20T16:01:26.303Z,-19180.09
2023-05-20T16:04:29.413Z,-19206.88
2023-05-20T16:07:32.127Z,-19226.47
2023-05-20T16:10:35.219Z,-19192.34
2023-05-20T16:13:38.077Z,-19150.84
2023-05-20T16:16:41.059Z,-19086.72
2023-05-20T16:19:43.693Z,-19039.34
2023-05-20T16:22:46.587Z,-19015.28
2023-05-20T16:25:49.414Z,-18993.34
2023-05-20T16:28:52.237Z,-18985.81
2023-05-20T16:31:54.999Z,-18975.31
2023-05-20T16:34:57.976Z,-18971.13
2023-05-20T16:38:00.889Z,-18962.91
2023-05-20T16:41:03.777Z,-18957.78
2023-05-20T16:44:06.423Z,-18952.81
2023-05-20T16:47:09.352Z,-18944.31
2023-05-20T16:50:11.997Z,-18935.28
2023-05-20T16:53:16.438Z,-18935.41
2023-05-20T16:56:21.654Z,-18928.38
2023-05-20T16:59:28.512Z,-18924.75
2023-05-20T17:02:31.490Z,-18923.00
2023-05-20T17:05:34.478Z,-18917.31
2023-05-20T17:08:38.132Z,-18914.34
2023-05-20T17:11:41.187Z,-18911.09
2023-05-20T17:14:43.824Z,-18908.69
2023-05-20T17:17:46.873Z,-18901.66
2023-05-20T17:20:49.425Z,-18901.53
2023-05-20T17:23:52.315Z,-18898.13
2023-05-20T17:26:54.893Z,-18893.69
2023-05-20T17:29:58.659Z,-18889.75
2023-05-20T17:33:01.741Z,-18885.56
2023-05-20T17:36:05.011Z,-18882.72
2023-05-20T17:39:09.592Z,-18881.38
2023-05-20T17:42:12.673Z,-18877.59
2023-05-20T17:45:15.397Z,-18872.19
2023-05-20T17:48:18.390Z,-18871.91
2023-05-20T17:51:22.144Z,-18865.97
2023-05-20T17:54:25.238Z,-18860.00
2023-05-20T17:57:28.411Z,-18855.00
2023-05-20T18:00:34.574Z,-18850.37
2023-05-20T18:03:39.907Z,-18849.56
2023-05-20T18:06:42.889Z,-18843.75
2023-05-20T18:09:46.005Z,-18839.56
2023-05-20T18:12:48.612Z,-18835.63
2023-05-20T18:15:52.725Z,-18830.75
2023-05-20T18:18:56.309Z,-18826.16
2023-05-20T18:21:59.705Z,-18821.53
2023-05-20T18:25:02.572Z,-18816.38
2023-05-20T18:28:06.016Z,-18812.03
2023-05-20T18:31:08.863Z,-18807.72
2023-05-20T18:34:11.827Z,-18803.38
2023-05-20T18:37:14.480Z,-18798.47
2023-05-20T18:40:19.065Z,-18795.22
2023-05-20T18:43:21.830Z,-18792.38
2023-05-20T18:46:24.795Z,-18788.59
2023-05-20T18:49:27.512Z,-18786.00
2023-05-20T18:52:30.853Z,-18782.59
2023-05-20T18:55:33.528Z,-18778.25
2023-05-20T18:58:36.527Z,-18774.87
2023-05-20T19:01:39.489Z,-18771.75
2023-05-20T19:04:42.554Z,-18768.75
2023-05-20T19:07:45.175Z,-18765.78
2023-05-20T19:10:48.047Z,-18761.97
2023-05-20T19:13:50.979Z,-18759.13
2023-05-20T19:16:53.998Z,-18756.28
2023-05-20T19:19:56.805Z,-18753.41
2023-05-20T19:22:59.853Z,-18750.97
2023-05-20T19:26:02.773Z,-18748.94
2023-05-20T19:29:06.973Z,-18746.34
2023-05-20T19:32:09.995Z,-18745.53
2023-05-20T19:35:13.424Z,-18743.09
2023-05-20T19:38:16.820Z,-18740.62
2023-05-20T19:41:20.067Z,-18739.28
2023-05-20T19:44:23.251Z,-18737.25
2023-05-20T19:47:26.488Z,-18735.19
2023-05-20T19:50:29.467Z,-18733.72
2023-05-20T19:53:32.790Z,-18731.13
2023-05-20T19:56:35.913Z,-18730.31
2023-05-20T19:59:39.258Z,-18728.53
2023-05-20T20:02:42.266Z,-18726.63
2023-05-20T20:05:46.050Z,-18724.84
2023-05-20T20:08:49.325Z,-18722.69
2023-05-20T20:11:52.472Z,-18721.31
2023-05-20T20:14:55.497Z,-18719.69
2023-05-20T20:17:59.197Z,-18718.88
2023-05-20T20:21:05.421Z,-18717.78
2023-05-20T20:24:08.312Z,-18716.28
2023-05-20T20:27:13.301Z,-18715.63
2023-05-20T20:30:16.450Z,-18714.25
2023-05-20T20:33:19.718Z,-18712.91
2023-05-20T20:36:22.708Z,-18711.13
2023-05-20T20:39:25.495Z,-18709.63
2023-05-20T20:42:28.712Z,-18707.84
2023-05-20T20:45:31.213Z,-18706.91
2023-05-20T20:48:34.588Z,-18705.53
2023-05-20T20:51:37.455Z,-18704.19
2023-05-20T20:54:42.929Z,-18702.69
2023-05-20T20:57:46.062Z,-18702.28
2023-05-20T21:00:49.596Z,-18700.66
2023-05-20T21:03:54.494Z,-18699.28
2023-05-20T21:07:02.035Z,-18701.19
2023-05-20T21:10:07.457Z,-18698.75
2023-05-20T21:13:11.073Z,-18697.09
2023-05-20T21:16:13.775Z,-18696.97
2023-05-20T21:19:16.799Z,-18695.75
2023-05-20T21:22:19.417Z,-18694.94
2023-05-20T21:25:22.297Z,-18694.09
2023-05-20T21:28:24.936Z,-18691.78
2023-05-20T21:31:28.049Z,-18690.44
2023-05-20T21:34:30.755Z,-18687.31
2023-05-20T21:37:33.654Z,-18687.16
2023-05-20T21:40:36.222Z,-18685.81
2023-05-20T21:43:39.139Z,-18685.13
2023-05-20T21:46:41.904Z,-18683.75
2023-05-20T21:49:45.042Z,-18682.81
2023-05-20T21:52:47.510Z,-18682.81
2023-05-20T21:55:50.723Z,-18683.63
2023-05-20T21:58:53.258Z,-18681.72
2023-05-20T22:01:58.084Z,-18680.34
2023-05-20T22:05:01.252Z,-18682.25
2023-05-20T22:08:04.045Z,-18682.25
2023-05-20T22:11:07.898Z,-18682.25
2023-05-20T22:14:11.632Z,-18681.44
2023-05-20T22:17:14.708Z,-18680.50
2023-05-20T22:20:17.388Z,-18678.84
2023-05-20T22:23:21.008Z,-18677.91
2023-05-20T22:26:23.638Z,-18676.41
2023-05-20T22:29:27.446Z,-18675.84
2023-05-20T22:32:30.068Z,-18674.75
2023-05-20T22:35:33.195Z,-18673.66
2023-05-20T22:38:35.996Z,-18673.00
2023-05-20T22:41:38.847Z,-18672.31
2023-05-20T22:44:41.389Z,-18672.03
2023-05-20T22:47:46.264Z,-18670.69
2023-05-20T22:50:50.214Z,-18670.69
2023-05-20T22:53:53.528Z,-18670.13
2023-05-20T22:56:59.150Z,-18669.44
2023-05-20T23:00:02.851Z,-18669.59
2023-05-20T23:03:05.948Z,-18668.22
2023-05-20T23:06:08.904Z,-18667.53
2023-05-20T23:09:12.467Z,-18667.41
2023-05-20T23:12:16.200Z,-18668.78
2023-05-20T23:15:19.278Z,-18673.13
2023-05-20T23:18:22.261Z,-18675.44
2023-05-20T23:21:24.819Z,-18677.75
2023-05-20T23:24:27.709Z,-18680.22
2023-05-20T23:27:30.246Z,-18678.72
2023-05-20T23:30:34.893Z,-18677.22
2023-05-20T23:33:37.798Z,-18675.84
2023-05-20T23:36:42.156Z,-18673.94
2023-05-20T23:39:44.832Z,-18675.16
2023-05-20T23:42:47.701Z,-18676.13
2023-05-20T23:45:50.240Z,-18675.31
2023-05-20T23:48:53.792Z,-18675.03
2023-05-20T23:51:56.434Z,-18672.72
2023-05-20T23:55:00.175Z,-18669.72
2023-05-20T23:58:02.941Z,-18670.00
